Time;durP1;ratioP1;P1;durP2;ratioP2;P2;SDS_P1;SDS_P2;PMS_P1;PMS_P2;Temp;Humidity;BMP_temperature;BMP_pressure;BME280_temperature;BME280_humidity;BME280_pressure;Samples;Min_cycle;Max_cycle;Signal;HPM_P1;HPM_P2
2022/06/06 00:00:08;;;;;;;20.73;15.02;;;;;;;;;;5076935;28;20579;-74
2022/06/06 00:02:36;;;;;;;18.15;13.60;;;;;;;;;;5104672;28;20046;-75
2022/06/06 00:05:02;;;;;;;18.77;14.15;;;;;;;;;;5100340;28;20506;-75
2022/06/06 00:07:28;;;;;;;20.73;14.25;;;;;;;;;;5096522;28;20146;-74
2022/06/06 00:09:54;;;;;;;19.90;14.68;;;;;;;;;;5106961;28;20043;-74
2022/06/06 00:12:23;;;;;;;17.33;13.50;;;;;;;;;;5095190;28;20092;-74
2022/06/06 00:14:49;;;;;;;20.45;14.48;;;;;;;;;;5101127;28;20460;-75
2022/06/06 00:17:15;;;;;;;19.20;14.15;;;;;;;;;;5103584;28;20557;-75
2022/06/06 00:19:42;;;;;;;17.60;13.45;;;;;;;;;;5076967;28;20063;-74
2022/06/06 00:22:08;;;;;;;20.63;14.88;;;;;;;;;;5105272;28;20123;-75
2022/06/06 00:24:34;;;;;;;20.58;15.60;;;;;;;;;;5102250;27;20043;-74
2022/06/06 00:27:00;;;;;;;18.70;14.63;;;;;;;;;;5084218;28;20031;-75
2022/06/06 00:29:27;;;;;;;19.52;14.63;;;;;;;;;;5093097;27;20095;-75
2022/06/06 00:34:54;;;;;;;22.08;14.90;;;;;;;;;;5102670;28;20046;-75
2022/06/06 00:37:25;;;;;;;18.98;14.63;;;;;;;;;;5109838;27;20122;-74
2022/06/06 00:39:51;;;;;;;18.60;13.93;;;;;;;;;;5098607;27;20035;-74
2022/06/06 00:42:23;;;;;;;19.80;14.68;;;;;;;;;;5104425;28;20035;-74
2022/06/06 00:45:10;;;;;;;20.13;14.02;;;;;;;;;;5090120;27;20122;-74
2022/06/06 00:47:38;;;;;;;21.02;13.88;;;;;;;;;;5080498;27;20039;-74
2022/06/06 00:50:10;;;;;;;16.48;11.82;;;;;;;;;;5088405;28;20074;-74
2022/06/06 00:52:38;;;;;;;15.90;11.23;;;;;;;;;;5089067;27;20099;-75
2022/06/06 00:55:08;;;;;;;14.35;11.07;;;;;;;;;;5096211;27;20290;-74
2022/06/06 00:57:36;;;;;;;15.98;10.60;;;;;;;;;;5108354;28;20038;-75
2022/06/06 01:00:05;;;;;;;14.18;10.10;;;;;;;;;;5088265;28;20122;-75
2022/06/06 01:02:31;;;;;;;16.58;11.00;;;;;;;;;;5106562;27;20043;-75
2022/06/06 01:04:57;;;;;;;23.10;12.68;;;;;;;;;;5096195;27;20130;-75
2022/06/06 01:07:23;;;;;;;16.20;11.40;;;;;;;;;;5107861;28;20055;-76
2022/06/06 01:09:49;;;;;;;16.35;12.45;;;;;;;;;;5101569;27;20049;-75
2022/06/06 01:12:17;;;;;;;22.08;13.40;;;;;;;;;;5100058;28;20047;-74
2022/06/06 01:15:06;;;;;;;17.15;12.35;;;;;;;;;;5109048;27;20062;-74
2022/06/06 01:17:49;;;;;;;19.63;13.52;;;;;;;;;;5087303;27;20444;-74
2022/06/06 01:20:19;;;;;;;15.70;12.57;;;;;;;;;;5082552;28;20035;-75
2022/06/06 01:22:57;;;;;;;16.98;12.00;;;;;;;;;;5109117;27;20332;-75
2022/06/06 01:25:26;;;;;;;19.80;12.73;;;;;;;;;;5100328;27;20035;-75
2022/06/06 01:27:56;;;;;;;16.65;12.07;;;;;;;;;;5100515;28;20074;-75
2022/06/06 01:30:24;;;;;;;15.05;10.40;;;;;;;;;;5108626;27;20043;-75
2022/06/06 01:32:52;;;;;;;15.63;11.20;;;;;;;;;;5079898;27;20035;-75
2022/06/06 01:35:26;;;;;;;15.90;10.68;;;;;;;;;;5103957;28;20066;-75
2022/06/06 01:37:53;;;;;;;13.85;10.20;;;;;;;;;;5088582;27;20036;-75
2022/06/06 01:40:20;;;;;;;13.75;9.38;;;;;;;;;;5079218;27;20512;-75
2022/06/06 01:42:49;;;;;;;15.02;9.07;;;;;;;;;;5107512;28;20645;-75
2022/06/06 01:45:28;;;;;;;14.57;9.30;;;;;;;;;;5101061;27;20080;-75
2022/06/06 01:48:03;;;;;;;11.13;7.63;;;;;;;;;;5097160;28;20050;-75
2022/06/06 01:50:30;;;;;;;12.10;8.20;;;;;;;;;;5091160;28;20146;-75
2022/06/06 01:53:07;;;;;;;11.55;8.50;;;;;;;;;;5082556;27;20565;-75
2022/06/06 01:55:34;;;;;;;13.23;8.13;;;;;;;;;;5099377;28;20390;-75
2022/06/06 01:58:01;;;;;;;12.80;7.38;;;;;;;;;;5091571;27;20464;-74
2022/06/06 02:00:28;;;;;;;12.15;7.68;;;;;;;;;;5079630;27;20039;-75
2022/06/06 02:02:55;;;;;;;13.63;8.48;;;;;;;;;;5103116;28;20032;-74
2022/06/06 02:05:21;;;;;;;11.15;7.50;;;;;;;;;;5087525;27;20035;-74
2022/06/06 02:07:47;;;;;;;12.70;7.50;;;;;;;;;;5095131;28;20047;-74
2022/06/06 02:10:14;;;;;;;11.65;7.38;;;;;;;;;;5107724;28;20195;-74
2022/06/06 02:12:41;;;;;;;10.60;7.30;;;;;;;;;;5082692;27;20035;-74
2022/06/06 02:15:09;;;;;;;11.75;7.13;;;;;;;;;;5109064;27;20035;-74
2022/06/06 02:17:35;;;;;;;10.20;6.78;;;;;;;;;;5095388;28;20059;-75
2022/06/06 02:20:04;;;;;;;10.23;6.80;;;;;;;;;;5078889;27;20502;-74
2022/06/06 02:22:31;;;;;;;10.75;6.55;;;;;;;;;;5086604;28;20398;-75
2022/06/06 02:24:57;;;;;;;12.85;7.03;;;;;;;;;;5086559;27;20121;-75
2022/06/06 02:27:23;;;;;;;13.13;6.72;;;;;;;;;;5078331;28;20118;-75
2022/06/06 02:29:49;;;;;;;11.13;6.50;;;;;;;;;;5107702;28;20373;-75
2022/06/06 02:32:16;;;;;;;10.15;6.22;;;;;;;;;;5098623;27;20039;-75
2022/06/06 02:34:42;;;;;;;12.95;6.70;;;;;;;;;;5100053;28;20047;-75
2022/06/06 02:37:08;;;;;;;9.23;5.68;;;;;;;;;;5089682;27;20042;-75
2022/06/06 02:39:34;;;;;;;13.55;6.72;;;;;;;;;;5077723;27;20085;-75
2022/06/06 02:42:01;;;;;;;9.50;6.43;;;;;;;;;;5104506;28;20103;-75
2022/06/06 02:44:27;;;;;;;9.85;7.07;;;;;;;;;;5084866;27;20039;-75
2022/06/06 02:46:53;;;;;;;9.98;6.32;;;;;;;;;;5095925;28;20433;-74
2022/06/06 02:49:19;;;;;;;9.98;6.28;;;;;;;;;;5107347;27;20043;-75
2022/06/06 02:51:46;;;;;;;11.75;6.95;;;;;;;;;;5080034;27;20130;-75
2022/06/06 02:54:12;;;;;;;13.02;8.13;;;;;;;;;;5100659;28;20120;-76
2022/06/06 02:56:38;;;;;;;11.07;7.35;;;;;;;;;;5087886;27;20047;-75
2022/06/06 02:59:05;;;;;;;11.80;8.20;;;;;;;;;;5077581;27;20066;-75
2022/06/06 03:01:31;;;;;;;13.98;9.13;;;;;;;;;;5105613;28;20112;-75
2022/06/06 03:03:58;;;;;;;12.45;9.05;;;;;;;;;;5100609;27;20250;-74
2022/06/06 03:06:36;;;;;;;12.30;7.88;;;;;;;;;;5097438;28;20048;-75
2022/06/06 03:09:06;;;;;;;12.80;8.63;;;;;;;;;;5107018;28;20063;-74
2022/06/06 03:11:51;;;;;;;12.60;8.68;;;;;;;;;;5097970;27;20308;-76
2022/06/06 03:14:36;;;;;;;13.23;8.75;;;;;;;;;;5097008;28;20043;-75
2022/06/06 03:23:14;;;;;;;12.48;8.40;;;;;;;;;;5081868;28;20078;-75
2022/06/06 03:25:53;;;;;;;11.75;8.20;;;;;;;;;;5084027;28;20399;-74
2022/06/06 03:28:34;;;;;;;12.15;8.65;;;;;;;;;;5106006;28;20035;-75
2022/06/06 03:31:03;;;;;;;10.85;7.53;;;;;;;;;;5088136;28;20075;-73
2022/06/06 03:33:48;;;;;;;10.77;7.55;;;;;;;;;;5100524;28;20036;-75
2022/06/06 03:36:24;;;;;;;10.25;6.40;;;;;;;;;;5094451;28;20514;-76
2022/06/06 03:38:50;;;;;;;13.07;6.75;;;;;;;;;;5080891;28;20039;-75
2022/06/06 03:41:25;;;;;;;11.90;7.05;;;;;;;;;;5101533;28;20111;-75
2022/06/06 03:43:55;;;;;;;11.23;6.93;;;;;;;;;;5104986;28;20458;-75
2022/06/06 03:46:27;;;;;;;11.52;6.82;;;;;;;;;;5094889;28;20123;-75
2022/06/06 03:49:09;;;;;;;10.80;7.07;;;;;;;;;;5103890;28;20425;-75
2022/06/06 03:51:44;;;;;;;11.77;6.90;;;;;;;;;;5103485;28;20061;-75
2022/06/06 03:54:29;;;;;;;9.82;6.22;;;;;;;;;;5093737;28;20054;-75
2022/06/06 03:57:14;;;;;;;9.32;5.97;;;;;;;;;;5084783;28;20047;-75
2022/06/06 03:59:41;;;;;;;8.10;5.50;;;;;;;;;;5108812;27;20039;-75
2022/06/06 04:02:09;;;;;;;8.77;5.03;;;;;;;;;;5097630;27;20036;-76
2022/06/06 04:04:35;;;;;;;9.23;5.07;;;;;;;;;;5090616;28;20044;-75
2022/06/06 04:07:02;;;;;;;8.25;5.22;;;;;;;;;;5104592;27;20035;-75
2022/06/06 04:09:29;;;;;;;10.77;6.53;;;;;;;;;;5099611;28;20051;-74
2022/06/06 04:11:55;;;;;;;13.38;8.40;;;;;;;;;;5112964;27;20047;-74
2022/06/06 04:14:42;;;;;;;13.60;9.38;;;;;;;;;;5107718;28;20035;-74
2022/06/06 04:17:11;;;;;;;12.52;8.88;;;;;;;;;;5106881;27;20035;-74
2022/06/06 04:19:43;;;;;;;14.23;8.95;;;;;;;;;;5097523;27;20043;-74
2022/06/06 04:22:09;;;;;;;15.80;9.32;;;;;;;;;;5097382;27;20131;-74
2022/06/06 04:24:35;;;;;;;16.17;9.55;;;;;;;;;;5104551;28;20058;-74
2022/06/06 04:27:34;;;;;;;13.10;9.38;;;;;;;;;;5109715;27;20124;-75
2022/06/06 04:30:06;;;;;;;14.10;9.40;;;;;;;;;;5031574;28;20442;-75
2022/06/06 04:32:43;;;;;;;14.60;9.07;;;;;;;;;;5094005;27;20053;-74
2022/06/06 04:35:32;;;;;;;15.13;8.18;;;;;;;;;;5098226;28;20478;-74
2022/06/06 04:38:10;;;;;;;13.40;8.23;;;;;;;;;;5086323;27;20046;-75
2022/06/06 04:40:46;;;;;;;14.02;8.05;;;;;;;;;;5085116;28;20050;-74
2022/06/06 04:43:22;;;;;;;15.60;8.10;;;;;;;;;;5109931;27;20520;-75
2022/06/06 04:46:08;;;;;;;12.45;7.47;;;;;;;;;;5085161;27;20043;-74
2022/06/06 04:48:35;;;;;;;12.73;7.80;;;;;;;;;;5100808;28;20084;-75
2022/06/06 04:51:02;;;;;;;11.95;7.40;;;;;;;;;;5109664;27;20372;-75
2022/06/06 04:53:30;;;;;;;14.32;8.02;;;;;;;;;;5080610;27;20720;-75
2022/06/06 04:55:57;;;;;;;12.70;7.45;;;;;;;;;;5105017;28;20028;-75
2022/06/06 04:58:26;;;;;;;12.98;7.43;;;;;;;;;;5105564;27;20085;-75
2022/06/06 05:00:52;;;;;;;12.40;7.13;;;;;;;;;;5090049;27;20043;-75
2022/06/06 05:03:18;;;;;;;14.27;7.88;;;;;;;;;;5091976;28;20127;-75
2022/06/06 05:05:52;;;;;;;13.93;7.90;;;;;;;;;;5101265;27;20045;-75
2022/06/06 05:08:30;;;;;;;13.85;8.48;;;;;;;;;;5112621;27;20047;-76
2022/06/06 05:11:01;;;;;;;14.32;9.02;;;;;;;;;;5096323;27;20285;-75
2022/06/06 05:13:43;;;;;;;14.90;8.68;;;;;;;;;;5105804;28;20044;-76
2022/06/06 05:16:28;;;;;;;13.80;8.10;;;;;;;;;;5106142;27;20047;-74
2022/06/06 05:18:57;;;;;;;14.52;8.65;;;;;;;;;;5096565;27;20124;-74
2022/06/06 05:21:42;;;;;;;17.70;10.10;;;;;;;;;;5088244;28;20042;-75
2022/06/06 05:24:29;;;;;;;19.92;12.57;;;;;;;;;;5089938;27;20071;-74
2022/06/06 05:27:14;;;;;;;23.60;13.68;;;;;;;;;;5072863;28;20492;-75
2022/06/06 05:29:49;;;;;;;21.23;14.30;;;;;;;;;;5094120;27;20039;-75
2022/06/06 05:32:31;;;;;;;24.48;15.00;;;;;;;;;;5096595;28;20488;-75
2022/06/06 05:34:57;;;;;;;23.65;14.82;;;;;;;;;;5098162;27;20047;-75
2022/06/06 05:37:46;;;;;;;23.80;15.55;;;;;;;;;;5102948;28;20044;-75
2022/06/06 05:40:28;;;;;;;26.83;15.32;;;;;;;;;;5108449;27;20042;-75
2022/06/06 05:43:13;;;;;;;24.67;15.18;;;;;;;;;;5099107;27;20149;-75
2022/06/06 05:45:51;;;;;;;24.08;14.65;;;;;;;;;;5099119;28;20036;-75
2022/06/06 05:48:17;;;;;;;25.65;15.40;;;;;;;;;;5091455;27;20035;-75
2022/06/06 05:50:44;;;;;;;25.30;16.52;;;;;;;;;;5074657;28;20040;-75
2022/06/06 05:53:30;;;;;;;24.08;16.52;;;;;;;;;;5102055;27;20042;-75
2022/06/06 05:55:56;;;;;;;30.63;17.73;;;;;;;;;;5093698;28;20084;-74
2022/06/06 05:58:41;;;;;;;28.15;18.33;;;;;;;;;;5094939;27;20041;-74
2022/06/06 06:01:20;;;;;;;28.83;18.27;;;;;;;;;;5085796;27;20035;-75
2022/06/06 06:03:55;;;;;;;30.13;20.23;;;;;;;;;;5095674;28;20047;-75
2022/06/06 06:06:30;;;;;;;31.77;20.17;;;;;;;;;;5106916;28;20040;-74
2022/06/06 06:09:05;;;;;;;28.70;20.50;;;;;;;;;;5084859;27;20051;-75
2022/06/06 06:11:38;;;;;;;31.52;22.15;;;;;;;;;;5096198;28;20515;-74
2022/06/06 06:14:11;;;;;;;29.75;19.63;;;;;;;;;;5095773;27;20043;-75
2022/06/06 06:16:41;;;;;;;28.33;19.38;;;;;;;;;;5093598;28;20047;-75
2022/06/06 06:19:12;;;;;;;27.20;17.98;;;;;;;;;;5082080;28;20071;-75
2022/06/06 06:21:41;;;;;;;25.52;17.35;;;;;;;;;;5091911;27;20078;-75
2022/06/06 06:24:09;;;;;;;27.88;15.95;;;;;;;;;;5106013;28;20055;-75
2022/06/06 06:26:36;;;;;;;27.45;17.13;;;;;;;;;;5084499;27;20038;-76
2022/06/06 06:29:03;;;;;;;24.25;14.82;;;;;;;;;;5098017;28;20067;-74
2022/06/06 06:31:32;;;;;;;23.40;13.93;;;;;;;;;;5108019;27;20403;-74
2022/06/06 06:34:01;;;;;;;21.92;13.93;;;;;;;;;;5080370;27;20042;-73
2022/06/06 06:36:40;;;;;;;22.15;13.13;;;;;;;;;;5083843;28;20035;-74
2022/06/06 06:39:18;;;;;;;20.90;13.98;;;;;;;;;;5107464;27;20039;-75
2022/06/06 06:42:03;;;;;;;24.73;13.93;;;;;;;;;;5081089;27;20031;-74
2022/06/06 06:44:40;;;;;;;23.15;14.55;;;;;;;;;;5099442;28;20390;-74
2022/06/06 06:47:16;;;;;;;21.15;14.18;;;;;;;;;;5093645;28;20147;-75
2022/06/06 06:49:44;;;;;;;20.27;13.10;;;;;;;;;;5073586;28;20419;-76
2022/06/06 06:52:26;;;;;;;19.15;12.48;;;;;;;;;;5072227;28;20036;-75
2022/06/06 06:55:08;;;;;;;18.48;12.55;;;;;;;;;;5072463;28;20454;-74
2022/06/06 06:57:53;;;;;;;18.38;12.20;;;;;;;;;;5091766;28;20043;-74
2022/06/06 07:00:19;;;;;;;;;;;;;;;;;;5091033;28;20035;-74
2022/06/06 07:09:19;;;;;;;20.08;12.55;;;;;;;;;;5074943;28;20056;-75
2022/06/06 07:11:58;;;;;;;19.33;11.70;;;;;;;;;;5070343;28;20089;-75
2022/06/06 07:14:47;;;;;;;20.67;11.60;;;;;;;;;;5069889;28;20039;-75
2022/06/06 07:17:15;;;;;;;19.75;10.65;;;;;;;;;;5069926;28;20053;-75
2022/06/06 07:19:49;;;;;;;16.35;9.95;;;;;;;;;;5080423;28;20039;-75
2022/06/06 07:22:17;;;;;;;14.55;8.20;;;;;;;;;;5075050;28;20036;-74
2022/06/06 07:24:44;;;;;;;11.60;7.68;;;;;;;;;;5082005;28;20507;-74
2022/06/06 07:27:11;;;;;;;14.55;6.95;;;;;;;;;;5067835;28;20109;-74
2022/06/06 07:29:38;;;;;;;12.35;6.50;;;;;;;;;;5073354;28;20039;-75
2022/06/06 07:32:28;;;;;;;16.13;7.57;;;;;;;;;;5082493;28;20058;-74
2022/06/06 07:34:59;;;;;;;11.02;6.47;;;;;;;;;;5043185;28;20063;-75
2022/06/06 07:37:28;;;;;;;11.98;5.72;;;;;;;;;;5076952;28;20046;-75
2022/06/06 07:40:03;;;;;;;10.90;4.43;;;;;;;;;;5082365;28;20078;-75
2022/06/06 07:42:30;;;;;;;9.82;5.05;;;;;;;;;;5076967;28;20046;-75
2022/06/06 07:45:10;;;;;;;8.30;3.80;;;;;;;;;;5068453;28;20071;-76
2022/06/06 07:47:56;;;;;;;8.88;3.83;;;;;;;;;;5069780;28;20506;-76
2022/06/06 07:50:26;;;;;;;8.63;3.70;;;;;;;;;;5067088;28;20495;-78
2022/06/06 07:53:02;;;;;;;6.38;3.60;;;;;;;;;;5059107;28;20054;-75
2022/06/06 07:55:34;;;;;;;7.95;3.53;;;;;;;;;;5072567;28;20044;-76
2022/06/06 07:58:13;;;;;;;8.27;4.05;;;;;;;;;;5060508;28;20488;-72
2022/06/06 08:00:39;;;;;;;9.35;4.05;;;;;;;;;;5052187;28;20036;-73
2022/06/06 08:03:28;;;;;;;11.40;4.13;;;;;;;;;;5084245;28;20134;-73
2022/06/06 08:06:03;;;;;;;10.02;4.10;;;;;;;;;;5077154;28;20036;-72
2022/06/06 08:08:33;;;;;;;8.57;4.00;;;;;;;;;;5096491;28;20101;-73
2022/06/06 08:11:09;;;;;;;9.35;4.40;;;;;;;;;;5105693;27;20118;-73
2022/06/06 08:13:55;;;;;;;7.38;3.80;;;;;;;;;;5097517;27;20059;-73
2022/06/06 08:16:21;;;;;;;9.73;4.43;;;;;;;;;;5107242;28;20122;-73
2022/06/06 08:19:06;;;;;;;8.10;4.57;;;;;;;;;;5104778;27;20039;-74
2022/06/06 08:21:33;;;;;;;9.98;4.20;;;;;;;;;;5097363;27;20042;-73
2022/06/06 08:24:00;;;;;;;9.30;4.35;;;;;;;;;;5109094;28;20047;-74
2022/06/06 08:26:27;;;;;;;12.32;5.75;;;;;;;;;;5102859;27;20043;-73
2022/06/06 08:28:54;;;;;;;9.00;4.75;;;;;;;;;;5094768;28;20190;-73
2022/06/06 08:31:21;;;;;;;10.50;5.10;;;;;;;;;;5091042;27;20044;-73
2022/06/06 08:33:48;;;;;;;11.48;5.18;;;;;;;;;;5108703;28;20046;-73
2022/06/06 08:36:42;;;;;;;10.45;4.85;;;;;;;;;;5102230;27;20088;-74
2022/06/06 08:39:17;;;;;;;10.90;5.25;;;;;;;;;;5097297;28;20440;-72
2022/06/06 08:41:47;;;;;;;10.00;5.35;;;;;;;;;;5108420;28;20084;-74
2022/06/06 08:44:26;;;;;;;9.38;4.65;;;;;;;;;;5085291;27;20041;-73
2022/06/06 08:47:04;;;;;;;11.32;5.05;;;;;;;;;;5097926;28;20180;-73
2022/06/06 08:52:34;;;;;;;12.90;5.00;;;;;;;;;;5102165;28;20108;-74
2022/06/06 08:55:24;;;;;;;9.48;4.25;;;;;;;;;;5109297;27;20043;-73
2022/06/06 08:57:57;;;;;;;9.00;4.22;;;;;;;;;;5084977;27;20046;-73
2022/06/06 09:00:40;;;;;;;8.77;4.40;;;;;;;;;;5099509;28;20499;-74
2022/06/06 09:03:10;;;;;;;9.65;4.50;;;;;;;;;;5109324;28;20040;-73
2022/06/06 09:05:39;;;;;;;12.27;4.10;;;;;;;;;;5100966;27;20062;-73
2022/06/06 09:08:12;;;;;;;9.68;4.28;;;;;;;;;;5100703;28;20057;-74
2022/06/06 09:10:51;;;;;;;9.20;3.95;;;;;;;;;;5109669;27;20490;-73
2022/06/06 09:13:36;;;;;;;9.82;4.30;;;;;;;;;;5081925;27;20036;-73
2022/06/06 09:16:21;;;;;;;8.68;3.78;;;;;;;;;;5076355;28;20480;-73
2022/06/06 09:19:06;;;;;;;7.78;3.67;;;;;;;;;;5078529;28;20137;-73
2022/06/06 09:21:32;;;;;;;7.30;3.38;;;;;;;;;;5075222;28;20123;-73
2022/06/06 09:24:07;;;;;;;14.43;3.63;;;;;;;;;;5103610;27;20047;-73
2022/06/06 09:26:52;;;;;;;6.30;3.10;;;;;;;;;;5079607;27;20514;-73
2022/06/06 09:29:37;;;;;;;7.80;3.40;;;;;;;;;;5104243;28;20079;-73
2022/06/06 09:32:28;;;;;;;7.20;2.58;;;;;;;;;;5076948;28;20050;-76
2022/06/06 09:34:54;;;;;;;5.82;2.55;;;;;;;;;;5081017;28;20120;-78
2022/06/06 09:37:29;;;;;;;6.32;2.58;;;;;;;;;;5061901;28;20071;-76
2022/06/06 09:39:57;;;;;;;9.80;3.00;;;;;;;;;;5096411;28;20457;-76
2022/06/06 09:42:27;;;;;;;7.78;2.70;;;;;;;;;;5093933;27;20047;-77
2022/06/06 09:45:03;;;;;;;6.03;2.40;;;;;;;;;;5091926;28;20508;-77
2022/06/06 09:47:48;;;;;;;7.00;2.80;;;;;;;;;;5082413;28;20440;-77
2022/06/06 09:50:21;;;;;;;6.97;2.30;;;;;;;;;;5087646;27;20071;-77
2022/06/06 09:53:17;;;;;;;5.22;2.72;;;;;;;;;;5087992;28;20043;-76
2022/06/06 09:59:01;;;;;;;6.90;2.40;;;;;;;;;;5077795;28;20040;-76
2022/06/06 10:01:27;;;;;;;8.95;2.80;;;;;;;;;;5080557;28;20089;-77
2022/06/06 10:03:53;;;;;;;10.73;3.60;;;;;;;;;;5075748;28;20044;-77
2022/06/06 10:06:43;;;;;;;7.32;2.85;;;;;;;;;;5066893;28;20090;-77
2022/06/06 10:09:12;;;;;;;10.25;3.05;;;;;;;;;;5086447;28;20055;-75
2022/06/06 10:11:45;;;;;;;8.73;2.95;;;;;;;;;;5073562;27;20036;-76
2022/06/06 10:14:14;;;;;;;6.60;2.78;;;;;;;;;;5089570;28;20553;-76
2022/06/06 10:16:43;;;;;;;5.65;2.70;;;;;;;;;;5079483;28;20035;-77
2022/06/06 10:19:28;;;;;;;3.83;2.53;;;;;;;;;;5078423;28;20488;-76
2022/06/06 10:21:54;;;;;;;;;;;;;;;;;;5089768;28;20089;-76
2022/06/06 10:24:30;;;;;;;4.65;2.63;;;;;;;;;;5083842;28;19920;-77
2022/06/06 10:26:56;;;;;;;6.32;3.03;;;;;;;;;;5070861;28;20040;-77
2022/06/06 10:30:10;;;;;;;7.25;3.00;;;;;;;;;;5085101;28;20115;-76
2022/06/06 10:32:37;;;;;;;7.15;2.85;;;;;;;;;;5085954;28;20048;-76
2022/06/06 10:35:18;;;;;;;5.10;3.08;;;;;;;;;;5084527;28;20503;-76
2022/06/06 10:37:53;;;;;;;7.85;3.20;;;;;;;;;;5082995;28;20048;-77
2022/06/06 10:40:35;;;;;;;6.82;2.60;;;;;;;;;;5084499;28;20028;-76
2022/06/06 10:43:01;;;;;;;6.00;2.97;;;;;;;;;;5091396;28;20066;-77
2022/06/06 10:45:28;;;;;;;5.20;2.60;;;;;;;;;;5093000;27;20045;-77
2022/06/06 10:47:54;;;;;;;7.25;2.65;;;;;;;;;;5100792;27;20050;-77
2022/06/06 10:50:30;;;;;;;6.30;2.75;;;;;;;;;;5096007;28;20112;-76
2022/06/06 10:52:59;;;;;;;5.75;2.72;;;;;;;;;;5091621;27;20071;-76
2022/06/06 10:55:44;;;;;;;6.07;2.75;;;;;;;;;;5102701;27;20139;-75
2022/06/06 10:58:29;;;;;;;5.90;3.05;;;;;;;;;;5077003;27;20039;-76
2022/06/06 11:01:14;;;;;;;8.65;3.83;;;;;;;;;;5090454;27;20039;-76
2022/06/06 11:03:40;;;;;;;7.55;3.65;;;;;;;;;;5086087;28;20078;-76
2022/06/06 11:06:25;;;;;;;6.80;3.75;;;;;;;;;;5094017;28;20043;-76
2022/06/06 11:08:51;;;;;;;;;;;;;;;;;;5085093;28;20070;-75
2022/06/06 11:11:36;;;;;;;9.38;4.75;;;;;;;;;;5076352;28;20010;-76
2022/06/06 11:14:13;;;;;;;7.68;4.47;;;;;;;;;;5077856;28;20051;-76
2022/06/06 11:16:58;;;;;;;10.57;4.30;;;;;;;;;;5057885;28;20058;-76
2022/06/06 11:19:31;;;;;;;8.27;4.00;;;;;;;;;;5075343;28;20098;-76
2022/06/06 11:22:13;;;;;;;8.30;4.22;;;;;;;;;;5073697;28;20046;-76
2022/06/06 11:24:45;;;;;;;6.35;3.17;;;;;;;;;;5049378;28;20735;-76
2022/06/06 11:27:12;;;;;;;7.15;3.22;;;;;;;;;;5072908;28;20048;-76
2022/06/06 11:29:52;;;;;;;8.02;3.20;;;;;;;;;;5070662;28;20229;-76
2022/06/06 11:32:33;;;;;;;10.48;3.40;;;;;;;;;;5054205;28;20056;-76
2022/06/06 11:35:25;;;;;;;5.07;3.08;;;;;;;;;;5069184;28;20116;-76
2022/06/06 11:38:11;;;;;;;7.60;3.20;;;;;;;;;;5076490;28;20513;-75
2022/06/06 11:40:56;;;;;;;6.88;3.45;;;;;;;;;;5078160;28;20063;-75
2022/06/06 11:43:28;;;;;;;9.07;3.78;;;;;;;;;;5062846;28;20282;-76
2022/06/06 11:46:04;;;;;;;6.30;3.90;;;;;;;;;;5075699;28;20044;-75
2022/06/06 11:48:55;;;;;;;6.93;3.85;;;;;;;;;;5078945;28;20039;-76
2022/06/06 11:51:35;;;;;;;5.78;3.85;;;;;;;;;;5077078;28;20039;-77
2022/06/06 11:54:07;;;;;;;8.23;4.57;;;;;;;;;;5062070;28;20118;-76
2022/06/06 11:56:52;;;;;;;8.15;3.83;;;;;;;;;;5074550;28;20036;-75
2022/06/06 11:59:35;;;;;;;5.75;3.40;;;;;;;;;;5077217;28;20441;-75
2022/06/06 12:02:10;;;;;;;5.72;2.83;;;;;;;;;;5066215;28;20060;-76
2022/06/06 12:04:39;;;;;;;7.05;3.13;;;;;;;;;;5057051;28;20079;-77
2022/06/06 12:07:18;;;;;;;7.00;2.67;;;;;;;;;;5054601;28;20052;-76
2022/06/06 12:09:58;;;;;;;5.25;2.45;;;;;;;;;;5082271;28;20047;-74
2022/06/06 12:12:37;;;;;;;6.70;3.28;;;;;;;;;;5078850;28;20032;-76
2022/06/06 12:15:22;;;;;;;5.57;2.80;;;;;;;;;;5075654;28;20050;-76
2022/06/06 12:17:55;;;;;;;5.00;2.90;;;;;;;;;;5071758;28;20048;-75
2022/06/06 12:20:21;;;;;;;8.37;3.20;;;;;;;;;;5062718;28;20066;-75
2022/06/06 12:22:54;;;;;;;6.75;2.92;;;;;;;;;;5094306;27;20046;-76
2022/06/06 12:25:20;;;;;;;6.05;2.28;;;;;;;;;;5075921;28;20108;-75
2022/06/06 12:27:59;;;;;;;6.35;2.40;;;;;;;;;;5088473;28;20036;-75
2022/06/06 12:30:28;;;;;;;8.60;2.85;;;;;;;;;;5077737;28;20036;-75
2022/06/06 12:33:05;;;;;;;4.72;2.00;;;;;;;;;;5092843;27;20047;-77
2022/06/06 12:35:35;;;;;;;4.68;1.70;;;;;;;;;;5082302;27;20514;-75
2022/06/06 12:38:01;;;;;;;4.13;1.75;;;;;;;;;;5083306;27;20039;-76
2022/06/06 12:40:31;;;;;;;4.40;1.70;;;;;;;;;;5101624;28;20039;-76
2022/06/06 12:43:09;;;;;;;5.15;2.05;;;;;;;;;;5092765;28;20126;-76
2022/06/06 12:45:36;;;;;;;4.68;1.80;;;;;;;;;;5092374;28;20122;-76
2022/06/06 12:48:06;;;;;;;3.58;1.75;;;;;;;;;;5075987;28;20040;-75
2022/06/06 12:50:46;;;;;;;6.57;1.60;;;;;;;;;;5101111;27;20078;-76
2022/06/06 12:53:12;;;;;;;5.18;1.60;;;;;;;;;;5076347;28;20050;-78
2022/06/06 12:55:59;;;;;;;5.70;1.88;;;;;;;;;;5075542;28;20051;-76
2022/06/06 12:58:40;;;;;;;2.35;1.55;;;;;;;;;;5076110;28;20406;-75
2022/06/06 13:03:57;;;;;;;4.63;2.15;;;;;;;;;;5083723;28;20035;-76
2022/06/06 13:06:23;;;;;;;7.60;2.25;;;;;;;;;;5090201;28;20120;-73
2022/06/06 13:09:08;;;;;;;7.43;2.45;;;;;;;;;;5087623;28;20102;-75
2022/06/06 13:11:48;;;;;;;6.45;2.30;;;;;;;;;;5082582;28;21356;-76
2022/06/06 13:14:34;;;;;;;5.28;2.70;;;;;;;;;;5063744;28;20043;-75
2022/06/06 13:17:03;;;;;;;7.03;2.95;;;;;;;;;;5069938;28;20059;-76
2022/06/06 13:19:59;;;;;;;5.95;2.85;;;;;;;;;;5053067;28;20039;-76
2022/06/06 13:22:25;;;;;;;4.88;2.88;;;;;;;;;;5053904;28;20044;-76
2022/06/06 13:25:00;;;;;;;5.00;3.03;;;;;;;;;;5069214;28;20387;-76
2022/06/06 13:27:45;;;;;;;7.13;3.08;;;;;;;;;;5067814;28;20062;-76
2022/06/06 13:30:17;;;;;;;7.82;2.72;;;;;;;;;;5053560;28;20491;-77
2022/06/06 13:32:49;;;;;;;7.15;3.40;;;;;;;;;;5065394;28;20062;-76
2022/06/06 13:35:19;;;;;;;4.35;2.90;;;;;;;;;;5052804;28;20483;-76
2022/06/06 13:37:48;;;;;;;5.90;2.58;;;;;;;;;;5069850;28;20032;-75
2022/06/06 13:40:20;;;;;;;4.78;2.50;;;;;;;;;;5040788;28;20051;-75
2022/06/06 13:42:49;;;;;;;4.38;2.60;;;;;;;;;;5064682;28;20450;-76
2022/06/06 13:45:15;;;;;;;4.43;2.40;;;;;;;;;;5062854;28;20495;-76
2022/06/06 13:48:01;;;;;;;4.63;1.95;;;;;;;;;;5056933;28;20126;-75
2022/06/06 13:50:30;;;;;;;3.72;2.00;;;;;;;;;;5056591;28;20101;-75
2022/06/06 13:53:04;;;;;;;5.85;2.25;;;;;;;;;;5062635;28;20046;-75
2022/06/06 13:55:35;;;;;;;6.50;2.50;;;;;;;;;;5048852;28;20127;-76
2022/06/06 13:58:17;;;;;;;5.60;2.60;;;;;;;;;;5050621;28;20047;-75
2022/06/06 14:00:52;;;;;;;6.70;3.63;;;;;;;;;;5051249;28;20039;-75
2022/06/06 14:03:18;;;;;;;6.40;3.45;;;;;;;;;;5065613;28;20040;-75
2022/06/06 14:05:44;;;;;;;6.40;3.22;;;;;;;;;;5064353;28;20040;-76
2022/06/06 14:08:13;;;;;;;6.68;3.60;;;;;;;;;;5047122;28;20083;-76
2022/06/06 14:10:56;;;;;;;7.30;4.07;;;;;;;;;;5070468;28;20569;-75
2022/06/06 14:13:41;;;;;;;8.00;3.90;;;;;;;;;;5070771;28;20048;-75
2022/06/06 14:16:18;;;;;;;6.85;4.50;;;;;;;;;;5053436;28;20063;-74
2022/06/06 14:18:46;;;;;;;7.70;4.95;;;;;;;;;;5075899;28;20082;-75
2022/06/06 14:21:21;;;;;;;7.93;4.32;;;;;;;;;;5080871;28;20600;-75
2022/06/06 14:23:47;;;;;;;7.72;5.43;;;;;;;;;;5086372;28;20502;-75
2022/06/06 14:26:14;;;;;;;7.38;4.85;;;;;;;;;;5064802;28;20079;-75
2022/06/06 14:28:42;;;;;;;6.88;4.88;;;;;;;;;;5044809;28;20480;-75
2022/06/06 14:31:27;;;;;;;7.15;5.20;;;;;;;;;;5069261;28;20055;-75
2022/06/06 14:33:53;;;;;;;;;;;;;;;;;;5055521;28;20043;-75
2022/06/06 14:36:21;;;;;;;8.48;5.53;;;;;;;;;;5054679;28;19916;-75
2022/06/06 14:38:58;;;;;;;7.60;5.00;;;;;;;;;;5082207;28;20036;-74
2022/06/06 14:41:35;;;;;;;9.77;5.78;;;;;;;;;;5079698;28;20034;-74
2022/06/06 14:44:03;;;;;;;8.68;5.78;;;;;;;;;;5063832;28;20068;-74
2022/06/06 14:46:44;;;;;;;7.70;5.38;;;;;;;;;;5075283;28;20036;-74
2022/06/06 14:49:11;;;;;;;9.98;5.75;;;;;;;;;;5071367;28;20063;-74
2022/06/06 14:51:41;;;;;;;8.65;5.28;;;;;;;;;;5070436;28;20044;-74
2022/06/06 14:54:10;;;;;;;10.98;6.07;;;;;;;;;;5079055;28;20100;-76
2022/06/06 14:56:44;;;;;;;9.02;6.18;;;;;;;;;;5080009;28;20039;-76
2022/06/06 14:59:30;;;;;;;10.10;6.15;;;;;;;;;;5061915;28;20061;-76
2022/06/06 15:02:09;;;;;;;9.80;6.28;;;;;;;;;;5064529;28;20391;-76
2022/06/06 15:04:35;;;;;;;10.25;7.05;;;;;;;;;;5080335;28;20039;-75
2022/06/06 15:07:01;;;;;;;9.63;7.10;;;;;;;;;;5069295;28;20042;-75
2022/06/06 15:09:27;;;;;;;11.68;7.38;;;;;;;;;;5097249;27;20056;-76
2022/06/06 15:11:54;;;;;;;12.40;8.25;;;;;;;;;;5099888;28;20414;-75
2022/06/06 15:14:25;;;;;;;12.27;7.18;;;;;;;;;;5091916;28;20050;-76
2022/06/06 15:16:51;;;;;;;11.70;8.00;;;;;;;;;;5089307;28;20067;-75
2022/06/06 15:19:28;;;;;;;11.52;7.22;;;;;;;;;;5084629;28;20107;-75
2022/06/06 15:21:55;;;;;;;13.98;7.45;;;;;;;;;;5076308;28;20042;-76
2022/06/06 15:24:26;;;;;;;13.63;7.93;;;;;;;;;;5080654;28;20035;-77
2022/06/06 15:27:00;;;;;;;14.27;8.15;;;;;;;;;;5055852;28;20047;-76
2022/06/06 15:29:40;;;;;;;17.88;8.77;;;;;;;;;;5065314;28;20040;-75
2022/06/06 15:32:22;;;;;;;10.90;5.00;;;;;;;;;;5083838;28;20040;-75
2022/06/06 15:35:08;;;;;;;8.88;4.45;;;;;;;;;;5086576;28;20158;-74